Flight Track Log - Related Links

Times and Time Zones

All times are in EDT time to prevent confusion due to time zone crossing. See the THY150 flight status page for this flight to view local times or setup timezone preferences in your user account.

Time Position Orientation Groundspeed Altitude Reporting Facility
EDT Latitude Longitude Course Direction KTS MPH feet Rate Location/Type
Sat 02:30:37 PM 41.0260 28.8140 354° North 160 184 1,800  Level FlightAware ADS-B
Sat 02:30:52 PM 41.0430 28.8060 340° North 166 191 2,500 2,133 Climbing FlightAware ADS-B
Sat 02:31:22 PM 41.0750 28.8150 12° North 242 278 3,400 2,250 Climbing FlightAware ADS-B
Sat 02:31:32 PM 41.0830 28.8300 55° Northeast 243 280 4,000 2,200 Climbing FlightAware ADS-B
Sat 02:31:52 PM 41.0880 28.8590 77° East 257 296 4,500 1,950 Climbing FlightAware ADS-B
Sat 02:32:12 PM 41.0920 28.8870 79° East 272 313 5,300 2,836 Climbing FlightAware ADS-B
Sat 02:32:47 PM 41.0700 28.9380 120° Southeast 276 318 7,100 3,046 Climbing FlightAware ADS-B
Sat 02:33:17 PM 41.0410 28.9790 133° Southeast 276 318 8,600 2,836 Climbing FlightAware ADS-B
Sat 02:33:42 PM 41.0200 29.0120 130° Southeast 280 322 9,700 2,677 Climbing FlightAware ADS-B
Sat 02:34:22 PM 40.9830 29.0680 131° Southeast 297 342 11,500 1,765 Climbing FlightAware ADS-B
Sat 02:35:07 PM 40.9410 29.1340 130° Southeast 334 384 12,200 1,553 Climbing FlightAware ADS-B
Sat 02:35:47 PM 40.8970 29.2020 131° Southeast 352 405 13,700 2,329 Climbing FlightAware ADS-B
Sat 02:36:32 PM 40.8470 29.2780 131° Southeast 359 413 15,500 2,188 Climbing FlightAware ADS-B
Sat 02:37:12 PM 40.8030 29.3450 131° Southeast 374 430 16,800 2,025 Climbing FlightAware ADS-B
Sat 02:37:52 PM 40.7560 29.4160 131° Southeast 374 430 18,200 1,950 Climbing FlightAware ADS-B
Sat 02:38:32 PM 40.7100 29.4870 131° Southeast 380 437 19,400 1,725 Climbing FlightAware ADS-B
Sat 02:39:12 PM 40.6640 29.5570 131° Southeast 395 455 20,500 1,765 Climbing FlightAware ADS-B
Sat 02:39:57 PM 40.6090 29.6400 131° Southeast 399 459 21,900 1,629 Climbing FlightAware ADS-B
Sat 02:40:22 PM 40.5890 29.6860 120° Southeast 399 459 22,400 1,371 Climbing FlightAware ADS-B
Sat 02:41:07 PM 40.5620 29.8020 107° East 411 473 23,500 1,482 Climbing FlightAware ADS-B
Sat 02:41:47 PM 40.5380 29.8960 109° East 415 478 24,500 1,350 Climbing FlightAware ADS-B
Sat 02:42:27 PM 40.5130 29.9910 109° East 421 484 25,300 1,200 Climbing FlightAware ADS-B
Sat 02:43:12 PM 40.4850 30.1020 108° East 430 495 26,200 1,125 Climbing FlightAware ADS-B
Sat 02:43:47 PM 40.4640 30.1860 108° East 435 501 26,800 1,059 Climbing FlightAware ADS-B
Sat 02:44:37 PM 40.4320 30.3120 108° East 442 509 27,700 1,074 Climbing FlightAware ADS-B
Sat 02:45:22 PM 40.4020 30.4290 109° East 451 519 28,500 1,050 Climbing FlightAware ADS-B
Sat 02:45:57 PM 40.3780 30.5220 109° East 455 524 29,100 923 Climbing FlightAware ADS-B
Sat 02:46:27 PM 40.3580 30.6000 109° East 460 529 29,500 1,029 Climbing FlightAware ADS-B
Sat 02:47:07 PM 40.3310 30.7040 109° East 459 528 30,300 1,059 Climbing FlightAware ADS-B
Sat 02:47:52 PM 40.3080 30.8240 104° East 459 528 31,000 525 Climbing FlightAware ADS-B
Sat 02:48:27 PM 40.2980 30.9200 98° East 455 524 31,000 71 Level FlightAware ADS-B
Sat 02:49:17 PM 40.2840 31.0560 98° East 457 526 31,100 450 Climbing FlightAware ADS-B
Sat 02:49:47 PM 40.2750 31.1400 98° East 458 527 31,600 975 Climbing FlightAware ADS-B
Sat 02:50:37 PM 40.2580 31.2730 99° East 451 519 32,400 505 Climbing FlightAware ADS-B
Sat 02:51:22 PM 40.2440 31.3810 100° East 451 519 32,400  Level FlightAware ADS-B
Sat 02:52:02 PM 40.2310 31.4720 101° East 451 519 32,400  Level FlightAware ADS-B
Sat 02:52:42 PM 40.2190 31.5640 100° East 451 519 32,400 1,200 Level FlightAware ADS-B
Sat 02:54:12 PM 40.1410 31.8270 111° Southeast 424 488 35,000 975 Climbing FlightAware ADS-B
Sat 02:55:22 PM 40.1040 32.0000 106° East 426 490 35,000  Level FlightAware ADS-B
Sat 02:56:32 PM 40.0670 32.1720 106° East 428 493 35,000  Level FlightAware ADS-B
Sat 02:57:47 PM 40.0260 32.3580 106° East 427 491 35,000  Level FlightAware ADS-B
Sat 02:59:02 PM 39.9850 32.5450 106° East 426 490 35,000  Level FlightAware ADS-B
Sat 03:00:12 PM 39.9480 32.7150 106° East 429 494 35,000 40 Level FlightAware ADS-B
Sat 03:01:32 PM 39.9020 32.9200 106° East 432 497 35,100  Climbing FlightAware ADS-B
Sat 03:02:37 PM 39.8660 33.0810 106° East 429 494 35,000 -50 Descending FlightAware ADS-B
Sat 03:03:32 PM 39.8340 33.2190 107° East 428 493 35,000 348 Level FlightAware ADS-B
Sat 03:05:12 PM 39.7770 33.4680 107° East 433 498 35,900 600 Climbing FlightAware ADS-B
Sat 03:06:02 PM 39.7480 33.5950 107° East 433 498 36,500 426 Climbing FlightAware ADS-B
Sat 03:07:47 PM 39.6900 33.8440 107° East 424 488 37,000 207 Climbing FlightAware ADS-B
Sat 03:08:27 PM 39.6670 33.9430 107° East 422 486 37,000  Level FlightAware ADS-B
Sat 03:09:12 PM 39.6420 34.0500 107° East 426 490 37,000 75 Level FlightAware ADS-B
Sat 03:09:47 PM 39.6220 34.1350 107° East 428 493 37,100 80 Climbing FlightAware ADS-B
Sat 03:10:27 PM 39.5980 34.2350 107° East 427 491 37,100 -52 Level FlightAware ADS-B
Sat 03:11:42 PM 39.5560 34.4100 107° East 424 488 37,000 -55 Descending FlightAware ADS-B
Sat 03:12:17 PM 39.5380 34.4910 106° East 424 488 37,000  Level FlightAware ADS-B
Sat 03:12:47 PM 39.5240 34.5530 106° East 424 488 37,000  Level FlightAware ADS-B
Sat 03:13:17 PM 39.5100 34.6160 106° East 424 488 37,000  Level FlightAware ADS-B
Sat 03:13:57 PM 39.4920 34.6990 106° East 424 488 37,000  Level FlightAware ADS-B
Sat 03:14:47 PM 39.4690 34.8030 106° East 424 488 37,000  Level FlightAware ADS-B
Sat 03:15:17 PM 39.4550 34.8650 106° East 424 488 37,000  Level FlightAware ADS-B
Sat 03:16:07 PM 39.4320 34.9690 106° East 424 488 37,000  Level FlightAware ADS-B
Sat 03:16:47 PM 39.4140 35.0520 106° East 424 488 37,000  Level FlightAware ADS-B
Sat 03:17:17 PM 39.4000 35.1140 106° East 424 488 37,000  Level FlightAware ADS-B
Sat 03:18:07 PM 39.3770 35.2180 106° East 424 488 37,000  Level FlightAware ADS-B
Sat 03:18:37 PM 39.3630 35.2800 106° East 424 488 37,000  Level FlightAware ADS-B
Sat 03:19:17 PM 39.3450 35.3630 106° East 424 488 37,000  Level FlightAware ADS-B
Sat 03:19:57 PM 39.3270 35.4460 106° East 424 488 37,000  Level FlightAware ADS-B
Sat 03:20:47 PM 39.3040 35.5490 106° East 424 488 37,000  Level FlightAware ADS-B
Sat 03:21:27 PM 39.2850 35.6320 106° East 424 488 37,000  Level FlightAware ADS-B
Sat 03:24:00 PM 39.1019 35.8843 133° Southeast  Level Estimated
Sat 03:25:00 PM 39.0300 35.9828 133° Southeast  Level Estimated
Sat 03:26:00 PM 38.9580 36.0812 133° Southeast  Level Estimated
Sat 03:27:00 PM 38.8859 36.1794 133° Southeast  Level Estimated
Sat 03:28:00 PM 38.8137 36.2774 133° Southeast  Level Estimated
Sat 03:29:00 PM 38.7414 36.3751 133° Southeast  Level Estimated
Sat 03:30:00 PM 38.6691 36.4727 134° Southeast  Level Estimated
Sat 03:31:00 PM 38.5966 36.5701 134° Southeast  Level Estimated
Sat 03:32:00 PM 38.5241 36.6673 134° Southeast  Level Estimated
Sat 03:33:00 PM 38.4515 36.7643 134° Southeast  Level Estimated
Sat 03:34:00 PM 38.3789 36.8611 134° Southeast  Level Estimated
Sat 03:35:00 PM 38.3061 36.9577 134° Southeast  Level Estimated
Sat 03:36:00 PM 38.2333 37.0541 134° Southeast  Level Estimated
Sat 03:37:00 PM 38.1604 37.1503 134° Southeast  Level Estimated
Sat 03:38:00 PM 38.0874 37.2463 134° Southeast  Level Estimated
Sat 03:39:00 PM 38.0143 37.3421 134° Southeast  Level Estimated
Sat 03:40:00 PM 37.9412 37.4378 134° Southeast  Level Estimated
Sat 03:41:00 PM 37.8680 37.5332 134° Southeast  Level Estimated
Sat 03:42:00 PM 37.7947 37.6285 134° Southeast  Level Estimated
Sat 03:43:00 PM 37.7213 37.7235 134° Southeast  Level Estimated
Sat 03:44:00 PM 37.6478 37.8184 134° Southeast  Level Estimated
Sat 03:45:00 PM 37.5743 37.9131 134° Southeast  Level Estimated
Sat 03:46:00 PM 37.5007 38.0076 134° Southeast  Level Estimated
Sat 03:47:00 PM 37.4271 38.1020 135° Southeast  Level Estimated
Sat 03:48:00 PM 37.3533 38.1961 135° Southeast  Level Estimated
Sat 03:49:00 PM 37.2795 38.2900 135° Southeast  Level Estimated
Sat 03:50:00 PM 37.2056 38.3838 135° Southeast  Level Estimated
Sat 03:51:00 PM 37.1316 38.4774 135° Southeast  Level Estimated
Sat 03:52:00 PM 37.0576 38.5708 135° Southeast  Level Estimated
Sat 03:53:00 PM 36.9835 38.6640 135° Southeast  Level Estimated
Sat 03:54:00 PM 36.9093 38.7570 135° Southeast  Level Estimated
Sat 03:55:00 PM 36.8350 38.8499 135° Southeast  Level Estimated
Sat 03:56:00 PM 36.7607 38.9426 135° Southeast  Level Estimated
Sat 03:57:00 PM 36.6862 39.0350 135° Southeast  Level Estimated
Sat 03:58:00 PM 36.6118 39.1274 135° Southeast  Level Estimated
Sat 03:58:07 PM 38.1070 41.2490 135° Southeast 448 516 37,000  Level FlightAware ADS-B
Sat 03:58:32 PM 38.0870 41.3140 111° Southeast 447 514 37,000  Level FlightAware ADS-B
Sat 03:59:27 PM 38.0460 41.4450 112° Southeast 445 512 37,000  Level FlightAware ADS-B
Sat 04:00:07 PM 38.0180 41.5370 111° Southeast 442 509 37,000  Level FlightAware ADS-B
Sat 04:00:47 PM 37.9860 41.6380 112° Southeast 442 509 37,000  Level FlightAware ADS-B
Sat 04:01:27 PM 37.9560 41.7340 112° Southeast 441 507 37,000  Level FlightAware ADS-B
Sat 04:02:12 PM 37.9230 41.8480 110° East 449 517 37,000  Level FlightAware ADS-B
Sat 04:02:42 PM 37.9100 41.9220 103° East 454 522 37,000  Level FlightAware ADS-B
Sat 04:03:07 PM 37.9030 41.9860 98° East 457 526 37,000  Level FlightAware ADS-B
Sat 04:03:52 PM 37.8960 42.1070 94° East 456 525 37,000  Level FlightAware ADS-B
Sat 04:04:27 PM 37.8910 42.1930 94° East 456 525 37,000  Level FlightAware ADS-B
Sat 04:05:12 PM 37.8820 42.3190 95° East 453 521 37,000  Level FlightAware ADS-B
Sat 04:05:52 PM 37.8750 42.4280 95° East 450 518 37,000  Level FlightAware ADS-B
Sat 04:06:37 PM 37.8670 42.5420 95° East 450 518 37,000  Level FlightAware ADS-B
Sat 04:07:17 PM 37.8430 42.6420 107° East 439 505 37,000  Level FlightAware ADS-B
Sat 04:07:57 PM 37.7980 42.7250 124° Southeast 427 491 37,000 75 Level FlightAware ADS-B
Sat 04:08:37 PM 37.7400 42.7910 138° Southeast 422 486 37,100  Climbing FlightAware ADS-B
Sat 04:09:17 PM 37.6810 42.8560 139° Southeast 420 483 37,000 -71 Descending FlightAware ADS-B
Sat 04:10:02 PM 37.6160 42.9270 139° Southeast 418 481 37,000  Level FlightAware ADS-B
Sat 04:10:42 PM 37.5550 42.9940 139° Southeast 420 483 37,000  Level FlightAware ADS-B
Sat 04:11:27 PM 37.4900 43.0650 139° Southeast 421 484 37,000  Level FlightAware ADS-B
Sat 04:12:07 PM 37.4300 43.1300 139° Southeast 423 487 37,000 75 Level FlightAware ADS-B
Sat 04:12:47 PM 37.3690 43.1920 141° Southeast 418 481 37,100 75 Climbing FlightAware ADS-B
Sat 04:13:27 PM 37.3060 43.2400 149° Southeast 411 473 37,100 -86 Level FlightAware ADS-B
Sat 04:13:57 PM 37.2530 43.2710 155° Southeast 407 468 37,000 -86 Descending FlightAware ADS-B
Sat 04:14:37 PM 37.1840 43.3100 156° South 406 467 37,000  Level FlightAware ADS-B
Sat 04:15:12 PM 37.1230 43.3450 155° Southeast 405 466 37,000  Level FlightAware ADS-B
Sat 04:15:57 PM 37.0470 43.3880 156° South 404 465 37,000  Level FlightAware ADS-B
Sat 04:16:27 PM 36.9960 43.4170 156° South 403 464 37,000  Level FlightAware ADS-B
Sat 04:17:07 PM 36.9280 43.4550 156° South 404 465 37,000  Level FlightAware ADS-B
Sat 04:17:47 PM 36.8590 43.4930 156° South 406 467 37,000  Level FlightAware ADS-B
Sat 04:18:32 PM 36.7800 43.5380 155° Southeast 410 472 37,000  Level FlightAware ADS-B
Sat 04:19:12 PM 36.7100 43.5760 156° South 410 472 37,000  Level FlightAware ADS-B
Sat 04:19:57 PM 36.6330 43.6150 158° South 405 466 37,000  Level FlightAware ADS-B
Sat 04:20:37 PM 36.5650 43.6510 157° South 403 464 37,000  Level FlightAware ADS-B
Sat 04:21:17 PM 36.4960 43.6870 157° South 402 463 37,000  Level FlightAware ADS-B
Sat 04:22:02 PM 36.4160 43.7280 158° South 402 463 37,000  Level FlightAware ADS-B
Sat 04:22:42 PM 36.3490 43.7630 157° South 400 460 37,000  Level FlightAware ADS-B
Sat 04:23:27 PM 36.2730 43.8020 158° South 400 460 37,000  Level FlightAware ADS-B
Sat 04:24:07 PM 36.2050 43.8380 157° South 403 464 37,000  Level FlightAware ADS-B
Sat 04:24:47 PM 36.1350 43.8750 157° South 403 464 37,000  Level FlightAware ADS-B
Sat 04:25:17 PM 36.0840 43.9020 157° South 403 464 37,000  Level FlightAware ADS-B
Sat 04:25:57 PM 36.0150 43.9380 157° South 403 464 37,000  Level FlightAware ADS-B
Sat 04:26:42 PM 35.9360 43.9790 157° South 404 465 37,000  Level FlightAware ADS-B
Sat 04:27:22 PM 35.8660 44.0160 157° South 405 466 37,000  Level FlightAware ADS-B
Sat 04:28:02 PM 35.7960 44.0520 157° South 406 467 37,000  Level FlightAware ADS-B
Sat 04:28:47 PM 35.7210 44.0910 157° South 406 467 37,000  Level FlightAware ADS-B
Sat 04:29:27 PM 35.6520 44.1270 157° South 406 467 37,000  Level FlightAware ADS-B
Sat 04:30:12 PM 35.5750 44.1670 157° South 407 468 37,000  Level FlightAware ADS-B
Sat 04:30:52 PM 35.5010 44.2050 157° South 410 472 37,000  Level FlightAware ADS-B
Sat 04:31:37 PM 35.4230 44.2450 157° South 411 473 37,000  Level FlightAware ADS-B
Sat 04:32:17 PM 35.3540 44.2800 158° South 411 473 37,000  Level FlightAware ADS-B
Sat 04:32:57 PM 35.2840 44.3160 157° South 412 474 37,000  Level FlightAware ADS-B
Sat 04:33:42 PM 35.2020 44.3540 159° South 411 473 37,000  Level FlightAware ADS-B
Sat 04:34:22 PM 35.1290 44.3880 159° South 411 473 37,000  Level FlightAware ADS-B
Sat 04:35:07 PM 35.0510 44.4240 159° South 411 473 37,000  Level FlightAware ADS-B
Sat 04:35:47 PM 34.9800 44.4570 159° South 411 473 37,000  Level FlightAware ADS-B
Sat 04:36:27 PM 34.9090 44.4890 160° South 413 475 37,000  Level FlightAware ADS-B
Sat 04:37:12 PM 34.8260 44.5280 159° South 413 475 37,000  Level FlightAware ADS-B
Sat 04:37:42 PM 34.7730 44.5520 160° South 414 476 37,000  Level FlightAware ADS-B
Sat 04:38:22 PM 34.7000 44.5850 160° South 413 475 37,000  Level FlightAware ADS-B
Sat 04:39:07 PM 34.6200 44.6210 160° South 414 476 37,000  Level FlightAware ADS-B
Sat 04:39:47 PM 34.5490 44.6530 160° South 415 478 37,000  Level FlightAware ADS-B
Sat 04:40:27 PM 34.4770 44.6870 159° South 419 482 37,000  Level FlightAware ADS-B
Sat 04:41:12 PM 34.3950 44.7280 158° South 423 487 37,000  Level FlightAware ADS-B
Sat 04:41:52 PM 34.3260 44.7780 149° Southeast 433 498 37,000  Level FlightAware ADS-B
Sat 04:42:32 PM 34.2570 44.8310 148° Southeast 432 497 37,000  Level FlightAware ADS-B
Sat 04:43:07 PM 34.2010 44.8730 148° Southeast 431 496 37,000  Level FlightAware ADS-B
Sat 04:43:57 PM 34.1220 44.9340 147° Southeast 431 496 37,000  Level FlightAware ADS-B
Sat 04:44:42 PM 34.0400 44.9940 149° Southeast 435 501 37,000  Level FlightAware ADS-B
Sat 04:45:12 PM 33.9900 45.0320 148° Southeast 436 502 37,000  Level FlightAware ADS-B
Sat 04:46:02 PM 33.9000 45.0990 148° Southeast 441 507 37,000  Level FlightAware ADS-B
Sat 04:46:42 PM 33.8410 45.1440 148° Southeast 441 507 37,000 75 Level FlightAware ADS-B
Sat 04:47:22 PM 33.7620 45.2030 148° Southeast 448 516 37,100 67 Climbing FlightAware ADS-B
Sat 04:48:12 PM 33.6790 45.2670 147° Southeast 448 516 37,100  Level FlightAware ADS-B
Sat 04:48:52 PM 33.6190 45.3130 147° Southeast 448 516 37,100  Level FlightAware ADS-B
Sat 04:49:32 PM 33.5600 45.3590 147° Southeast 448 516 37,100  Level FlightAware ADS-B
Sat 04:50:12 PM 33.5010 45.4050 147° Southeast 448 516 37,100  Level FlightAware ADS-B
Sat 04:50:52 PM 33.4420 45.4510 147° Southeast 448 516 37,100 -67 Level FlightAware ADS-B
Sat 04:51:42 PM 33.3100 45.5400 151° Southeast 435 501 37,000 -71 Descending FlightAware ADS-B
Sat 04:52:17 PM 33.2570 45.5800 148° Southeast 435 501 37,000  Level FlightAware ADS-B
Sat 04:53:07 PM 33.1840 45.6340 148° Southeast 435 501 37,000  Level FlightAware ADS-B
Sat 04:53:37 PM 33.1180 45.6820 149° Southeast 434 499 37,000  Level FlightAware ADS-B
Sat 04:54:22 PM 33.0470 45.7350 148° Southeast 434 499 37,000  Level FlightAware ADS-B
Sat 04:55:12 PM 32.9750 45.7890 148° Southeast 434 499 37,000  Level FlightAware ADS-B
Sat 04:55:52 PM 32.9170 45.8320 148° Southeast 434 499 37,000  Level FlightAware ADS-B
Sat 04:56:32 PM 32.8590 45.8750 148° Southeast 434 499 37,000  Level FlightAware ADS-B
Sat 04:57:12 PM 32.8010 45.9180 148° Southeast 434 499 37,000  Level FlightAware ADS-B
Sat 04:57:52 PM 32.7430 45.9610 148° Southeast 434 499 37,000  Level FlightAware ADS-B
Sat 04:58:32 PM 32.6850 46.0040 148° Southeast 434 499 37,000  Level FlightAware ADS-B
Sat 04:59:22 PM 32.6130 46.0580 148° Southeast 434 499 37,000  Level FlightAware ADS-B
Sat 05:00:02 PM 32.5550 46.1010 148° Southeast 434 499 37,000  Level FlightAware ADS-B
Sat 05:00:42 PM 32.4970 46.1440 148° Southeast 434 499 37,000  Level FlightAware ADS-B
Sat 05:01:22 PM 32.4390 46.1870 148° Southeast 434 499 37,000  Level FlightAware ADS-B
Sat 05:02:02 PM 32.3810 46.2300 148° Southeast 434 499 37,000  Level FlightAware ADS-B
Sat 05:02:52 PM 32.3090 46.2830 148° Southeast 434 499 37,000  Level FlightAware ADS-B
Sat 05:03:32 PM 32.2510 46.3260 148° Southeast 434 499 37,000  Level FlightAware ADS-B
Sat 05:06:00 PM 32.0232 46.4718 151° Southeast  Level Estimated
Sat 05:07:00 PM 31.9308 46.5307 152° Southeast  Level Estimated
Sat 05:08:00 PM 31.8384 46.5895 152° Southeast  Level Estimated
Sat 05:09:00 PM 31.7460 46.6482 152° Southeast  Level Estimated
Sat 05:10:00 PM 31.6535 46.7068 152° Southeast  Level Estimated
Sat 05:11:00 PM 31.5610 46.7652 152° Southeast  Level Estimated
Sat 05:12:00 PM 31.4685 46.8236 152° Southeast  Level Estimated
Sat 05:13:00 PM 31.3760 46.8818 152° Southeast  Level Estimated
Sat 05:14:00 PM 31.2834 46.9399 152° Southeast  Level Estimated
Sat 05:15:00 PM 31.1908 46.9978 152° Southeast  Level Estimated
Sat 05:15:32 PM 30.8520 47.4870 152° Southeast 37,000  Level FlightAware ADS-B
Sat 05:16:32 PM 30.7510 47.5930 138° Southeast 474 545 37,000  Level FlightAware ADS-B
Sat 05:17:47 PM 30.6370 47.7110 138° Southeast 473 544 37,000  Level FlightAware ADS-B
Sat 05:18:27 PM 30.5820 47.7690 138° Southeast 473 544 37,000  Level FlightAware ADS-B
Sat 05:19:07 PM 30.5030 47.8510 138° Southeast 470 541 37,000  Level FlightAware ADS-B
Sat 05:19:52 PM 30.4210 47.9350 139° Southeast 468 539 37,000  Level FlightAware ADS-B
Sat 05:20:27 PM 30.3700 47.9880 138° Southeast 468 539 37,000  Level FlightAware ADS-B
Sat 05:21:32 PM 30.2710 48.0910 138° Southeast 468 539 37,000  Level FlightAware ADS-B
Sat 05:22:27 PM 30.1790 48.1850 139° Southeast 470 541 37,000  Level FlightAware ADS-B
Sat 05:23:07 PM 30.1240 48.2420 138° Southeast 470 541 37,000  Level FlightAware ADS-B
Sat 05:23:47 PM 30.0690 48.3000 138° Southeast 470 541 37,000  Level FlightAware ADS-B
Sat 05:24:32 PM 29.9650 48.4040 139° Southeast 475 547 37,000  Level FlightAware ADS-B
Sat 05:25:27 PM 29.8750 48.4880 141° Southeast 465 535 37,000 -63 Level FlightAware ADS-B
Sat 05:26:07 PM 29.8000 48.5400 149° Southeast 454 522 36,900 -353 Descending FlightAware ADS-B
Sat 05:26:52 PM 29.7140 48.5900 153° Southeast 455 524 36,500 -565 Descending FlightAware ADS-B
Sat 05:27:32 PM 29.6400 48.6340 153° Southeast 457 526 36,100 -525 Descending FlightAware ADS-B
Sat 05:28:12 PM 29.5640 48.6790 153° Southeast 451 519 35,800 -424 Descending FlightAware ADS-B
Sat 05:28:57 PM 29.4890 48.7230 153° Southeast 453 521 35,500 -467 Descending FlightAware ADS-B
Sat 05:29:42 PM 29.4030 48.7730 153° Southeast 454 522 35,100 -450 Descending FlightAware ADS-B
Sat 05:30:17 PM 29.3340 48.8130 153° Southeast 453 521 34,900 -450 Descending FlightAware ADS-B
Sat 05:31:02 PM 29.2470 48.8640 153° Southeast 454 522 34,500 -282 Descending FlightAware ADS-B
Sat 05:31:42 PM 29.1870 48.8990 153° Southeast 454 522 34,500 -467 Level FlightAware ADS-B
Sat 05:32:32 PM 29.0790 48.9620 153° Southeast 458 527 33,800 -565 Descending FlightAware ADS-B
Sat 05:33:07 PM 29.0170 48.9980 153° Southeast 460 529 33,700 -80 Descending FlightAware ADS-B
Sat 05:33:47 PM 28.9520 49.0350 154° Southeast 460 529 33,700 -733 Level FlightAware ADS-B
Sat 05:34:37 PM 28.8400 49.1000 153° Southeast 458 527 32,600 -857 Descending FlightAware ADS-B
Sat 05:35:32 PM 28.7450 49.1550 153° Southeast 458 527 32,200 -733 Descending FlightAware ADS-B
Sat 05:36:07 PM 28.6700 49.1980 153° Southeast 458 527 31,500 -825 Descending FlightAware ADS-B
Sat 05:36:52 PM 28.5900 49.2440 153° Southeast 456 525 31,100 -667 Descending FlightAware ADS-B
Sat 05:37:37 PM 28.5040 49.2930 153° Southeast 458 527 30,500 -565 Descending FlightAware ADS-B
Sat 05:38:17 PM 28.4310 49.3350 153° Southeast 457 526 30,300 -150 Descending FlightAware ADS-B
Sat 05:38:57 PM 28.3670 49.3720 153° Southeast 457 526 30,300  Level FlightAware ADS-B
Sat 05:39:37 PM 28.3030 49.4100 152° Southeast 457 526 30,300 -867 Level FlightAware ADS-B
Sat 05:40:27 PM 28.1820 49.4770 154° Southeast 427 491 29,000 -918 Descending FlightAware ADS-B
Sat 05:41:02 PM 28.1220 49.5110 153° Southeast 426 490 29,000  Level FlightAware ADS-B
Sat 05:41:47 PM 28.0520 49.5630 147° Southeast 435 501 29,000  Level FlightAware ADS-B
Sat 05:42:32 PM 27.9750 49.6260 144° Southeast 436 502 29,000  Level FlightAware ADS-B
Sat 05:43:17 PM 27.9110 49.6780 144° Southeast 436 502 29,000  Level FlightAware ADS-B
Sat 05:43:57 PM 27.8550 49.7240 144° Southeast 436 502 29,000  Level FlightAware ADS-B
Sat 05:44:37 PM 27.8000 49.7690 144° Southeast 436 502 29,000  Level FlightAware ADS-B
Sat 05:45:17 PM 27.7440 49.8150 144° Southeast 436 502 29,000  Level FlightAware ADS-B
Sat 05:45:57 PM 27.6890 49.8600 144° Southeast 436 502 29,000  Level FlightAware ADS-B
Sat 05:48:00 PM 27.4739 49.8489 183° South  Level Estimated
Sat 05:49:00 PM 27.3690 49.8436 183° South  Level Estimated
Sat 05:50:00 PM 27.2640 49.8382 183° South  Level Estimated
Sat 05:51:00 PM 27.1591 49.8328 183° South  Level Estimated
Sat 05:52:00 PM 27.0542 49.8275 183° South  Level Estimated
Sat 05:53:00 PM 26.9492 49.8221 183° South  Level Estimated
Sat 05:54:00 PM 26.8443 49.8168 183° South  Level Estimated
Sat 05:55:00 PM 26.7394 49.8115 183° South  Level Estimated
Sat 05:56:00 PM 26.6345 49.8061 183° South  Level Estimated
Sat 05:57:00 PM 26.5295 49.8008 183° South  Level Estimated
Sat 05:58:00 PM 26.4712 49.7979 183° South  Level Estimated
Sat 05:59:00 PM 26.4712 49.7979 North  Level Estimated
Sat 06:00:00 PM 26.4712 49.7979 North  Level Estimated
Sat 06:01:00 PM 26.4712 49.7979 North  Level Estimated
Sat 06:02:00 PM 26.4712 49.7979 North  Level Estimated
Sat 06:03:00 PM 26.4712 49.7979 North  Level Estimated
Sat 06:04:00 PM 26.4712 49.7979 North  Level Estimated
Sat 06:05:00 PM 26.4712 49.7979 North  Level Estimated
Sat 06:06:00 PM 26.4712 49.7979 North  Level Estimated
Sat 06:07:00 PM 26.4712 49.7979 North  Level Estimated
Sat 06:08:00 PM 26.4712 49.7979 North  Level Estimated
Sat 06:09:00 PM 26.4712 49.7979 North  Level Estimated
Sat 06:10:00 PM 26.4712 49.7979 North  Level Estimated
Sat 06:11:00 PM 26.4712 49.7979 North  Level Estimated
Sat 06:12:00 PM 26.4712 49.7979 North  Level Estimated
Sat 06:13:00 PM 26.4712 49.7979 North  Level Estimated
Sat 06:14:00 PM 26.4712 49.7979 North  Level Estimated
Sat 06:15:00 PM 26.4712 49.7979 North  Level Estimated
Sat 06:16:00 PM 26.4712 49.7979 North  Level Estimated
Sat 06:17:00 PM 26.4712 49.7979 North  Level Estimated
Sat 06:18:00 PM 26.4712 49.7979 North  Level Estimated
Sat 06:19:00 PM 26.4712 49.7979 North  Level Estimated
Sat 06:20:00 PM 26.4712 49.7979 North  Level Estimated

Login

Don't have an account? Register now (free) for customized features, flight alerts, and more!